Orbital elements of XMM-NEWTON
| Launched | 9 December 1999 |
| Flight ended | – |
| Launch site | Europe's Spaceport, Kourou, French Guiana |
| Owner | European Space Agency |
| NORAD ID | 25989 |
| Date fetched |
Epoch osculation |
Inc. [°] |
Ecc. | RA asc node [hr] |
Arg Peri. [°] |
Mean anom [°] |
Mean motion [rev/day] |
Abs. mag |
| Date fetched |
Epoch osculation |
Inc. [°] |
Ecc. | RA asc node [hr] |
Arg Peri. [°] |
Mean anom [°] |
Mean motion [rev/day] |
Abs. mag |
| 2026 May 08 17:57 | 2026 May 09 10:55:20 | 64.6913 | 0.46870 | 18.8988 | 65.5825 | 0.1657 | 0.50128 | 4.743 |
| 2026 May 07 17:58 | 2026 May 07 11:03:17 | 64.6994 | 0.46870 | 18.9004 | 65.6184 | 0.1657 | 0.50128 | 4.743 |
| 2026 May 06 17:57 | 2026 May 07 11:03:17 | 64.6994 | 0.46870 | 18.9004 | 65.6184 | 0.1657 | 0.50128 | 4.743 |
| 2026 May 05 17:57 | 2026 May 07 11:03:17 | 64.6994 | 0.46870 | 18.9004 | 65.6184 | 0.1657 | 0.50128 | 4.743 |
| 2026 May 04 17:57 | 2026 May 05 11:11:07 | 64.7084 | 0.46873 | 18.9021 | 65.6551 | 0.1657 | 0.50128 | 4.743 |
| 2026 May 03 17:57 | 2026 May 05 11:11:07 | 64.7084 | 0.46873 | 18.9021 | 65.6551 | 0.1657 | 0.50128 | 4.743 |
| 2026 May 02 17:57 | 2026 May 03 11:18:56 | 64.7152 | 0.46876 | 18.9037 | 65.6998 | 0.1657 | 0.50128 | 4.743 |
| 2026 May 01 17:56 | 2026 May 03 11:18:56 | 64.7152 | 0.46876 | 18.9037 | 65.6998 | 0.1657 | 0.50128 | 4.743 |
| 2026 Apr 30 17:56 | 2026 Apr 29 11:34:47 | 64.7331 | 0.46887 | 18.9071 | 65.7859 | 0.1657 | 0.50128 | 4.743 |
| 2026 Apr 29 17:57 | 2026 Apr 29 11:34:47 | 64.7331 | 0.46887 | 18.9071 | 65.7859 | 0.1657 | 0.50128 | 4.743 |
| 2026 Apr 28 17:56 | 2026 Apr 29 11:34:47 | 64.7331 | 0.46887 | 18.9071 | 65.7859 | 0.1657 | 0.50128 | 4.743 |
| 2026 Apr 27 17:58 | 2026 Apr 29 11:34:47 | 64.7331 | 0.46887 | 18.9071 | 65.7859 | 0.1657 | 0.50128 | 4.743 |
| 2026 Apr 26 17:58 | 2026 Apr 27 11:42:44 | 64.7433 | 0.46894 | 18.9088 | 65.8291 | 0.1657 | 0.50128 | 4.743 |
| 2026 Apr 25 17:58 | 2026 Apr 25 11:51:01 | 64.7536 | 0.46902 | 18.9105 | 65.8716 | 0.1657 | 0.50128 | 4.743 |
| 2026 Apr 24 17:59 | 2026 Apr 25 11:51:01 | 64.7536 | 0.46902 | 18.9105 | 65.8716 | 0.1657 | 0.50128 | 4.743 |
| 2026 Apr 23 17:57 | 2026 Apr 23 11:59:12 | 64.7645 | 0.46913 | 18.9121 | 65.9143 | 0.1657 | 0.50128 | 4.743 |
| 2026 Apr 22 17:57 | 2026 Apr 23 11:59:12 | 64.7645 | 0.46913 | 18.9121 | 65.9143 | 0.1657 | 0.50128 | 4.743 |
| 2026 Apr 21 17:57 | 2026 Apr 23 11:59:05 | 64.7647 | 0.46913 | 18.9121 | 65.9142 | 0.1657 | 0.50128 | 4.743 |
| 2026 Apr 20 17:57 | 2026 Apr 21 12:06:42 | 64.7761 | 0.46930 | 18.9138 | 65.9501 | 0.1657 | 0.50128 | 4.743 |
| 2026 Apr 19 17:58 | 2026 Apr 21 12:06:42 | 64.7761 | 0.46930 | 18.9138 | 65.9501 | 0.1657 | 0.50128 | 4.743 |
| 2026 Apr 18 17:56 | 2026 Apr 19 12:13:58 | 64.7868 | 0.46943 | 18.9156 | 65.9835 | 0.1657 | 0.50128 | 4.743 |
| 2026 Apr 16 17:57 | 2026 Apr 17 12:21:26 | 64.7975 | 0.46957 | 18.9174 | 66.0082 | 0.1657 | 0.50128 | 4.743 |
| 2026 Apr 14 17:57 | 2026 Apr 15 12:29:23 | 64.8079 | 0.46967 | 18.9193 | 66.0314 | 0.1657 | 0.50128 | 4.743 |
| 2026 Apr 13 17:57 | 2026 Apr 13 12:37:25 | 64.8180 | 0.46972 | 18.9211 | 66.0541 | 0.1657 | 0.50128 | 4.743 |
| 2026 Apr 12 17:57 | 2026 Apr 13 12:37:25 | 64.8180 | 0.46972 | 18.9211 | 66.0541 | 0.1657 | 0.50128 | 4.743 |
| 2026 Apr 11 17:57 | 2026 Apr 11 12:45:26 | 64.8276 | 0.46975 | 18.9229 | 66.0816 | 0.1657 | 0.50128 | 4.743 |